sensor_id;sensor_type;location;lat;lon;timestamp;P1;durP1;ratioP1;P2;durP2;ratioP2
14001;SDS011;7076;51.280;12.584;2023-11-21T00:00:22;1.45;;;1.08;;
14001;SDS011;7076;51.280;12.584;2023-11-21T00:05:25;1.80;;;0.80;;
14001;SDS011;7076;51.280;12.584;2023-11-21T00:10:29;3.30;;;1.30;;
14001;SDS011;7076;51.280;12.584;2023-11-21T00:15:31;1.13;;;0.80;;
14001;SDS011;7076;51.280;12.584;2023-11-21T00:20:34;1.02;;;0.90;;
14001;SDS011;7076;51.280;12.584;2023-11-21T00:25:38;2.75;;;0.75;;
14001;SDS011;7076;51.280;12.584;2023-11-21T00:30:41;1.90;;;0.82;;
14001;SDS011;7076;51.280;12.584;2023-11-21T00:35:44;0.95;;;0.77;;
14001;SDS011;7076;51.280;12.584;2023-11-21T00:40:48;1.90;;;0.90;;
14001;SDS011;7076;51.280;12.584;2023-11-21T00:45:50;3.78;;;0.65;;
14001;SDS011;7076;51.280;12.584;2023-11-21T00:50:53;0.68;;;0.68;;
14001;SDS011;7076;51.280;12.584;2023-11-21T00:55:58;0.98;;;0.90;;
14001;SDS011;7076;51.280;12.584;2023-11-21T01:01:01;1.17;;;0.90;;
14001;SDS011;7076;51.280;12.584;2023-11-21T01:06:05;1.00;;;0.82;;
14001;SDS011;7076;51.280;12.584;2023-11-21T01:11:10;3.33;;;1.00;;
14001;SDS011;7076;51.280;12.584;2023-11-21T01:16:14;1.15;;;0.90;;
14001;SDS011;7076;51.280;12.584;2023-11-21T01:21:17;1.33;;;0.80;;
14001;SDS011;7076;51.280;12.584;2023-11-21T01:26:21;2.25;;;1.23;;
14001;SDS011;7076;51.280;12.584;2023-11-21T01:31:23;2.15;;;1.00;;
14001;SDS011;7076;51.280;12.584;2023-11-21T01:36:30;2.90;;;1.02;;
14001;SDS011;7076;51.280;12.584;2023-11-21T01:41:35;1.67;;;1.00;;
14001;SDS011;7076;51.280;12.584;2023-11-21T01:46:38;2.78;;;1.13;;
14001;SDS011;7076;51.280;12.584;2023-11-21T01:51:41;2.20;;;1.00;;
14001;SDS011;7076;51.280;12.584;2023-11-21T01:56:46;1.00;;;0.88;;
14001;SDS011;7076;51.280;12.584;2023-11-21T02:01:49;5.32;;;1.00;;
14001;SDS011;7076;51.280;12.584;2023-11-21T02:06:53;0.90;;;0.90;;
14001;SDS011;7076;51.280;12.584;2023-11-21T02:11:57;1.42;;;0.90;;
14001;SDS011;7076;51.280;12.584;2023-11-21T02:17:00;1.10;;;0.80;;
14001;SDS011;7076;51.280;12.584;2023-11-21T02:22:05;2.22;;;1.23;;
14001;SDS011;7076;51.280;12.584;2023-11-21T02:27:10;3.03;;;1.42;;
14001;SDS011;7076;51.280;12.584;2023-11-21T02:32:13;3.28;;;1.17;;
14001;SDS011;7076;51.280;12.584;2023-11-21T02:37:16;2.25;;;1.40;;
14001;SDS011;7076;51.280;12.584;2023-11-21T02:42:20;1.20;;;0.90;;
14001;SDS011;7076;51.280;12.584;2023-11-21T02:47:23;3.03;;;0.93;;
14001;SDS011;7076;51.280;12.584;2023-11-21T02:52:25;2.72;;;1.10;;
14001;SDS011;7076;51.280;12.584;2023-11-21T02:57:29;1.00;;;0.90;;
14001;SDS011;7076;51.280;12.584;2023-11-21T03:02:32;1.55;;;1.00;;
14001;SDS011;7076;51.280;12.584;2023-11-21T03:07:38;3.30;;;1.48;;
14001;SDS011;7076;51.280;12.584;2023-11-21T03:12:42;2.47;;;1.30;;
14001;SDS011;7076;51.280;12.584;2023-11-21T03:17:46;2.38;;;1.40;;
14001;SDS011;7076;51.280;12.584;2023-11-21T03:22:50;3.15;;;1.35;;
14001;SDS011;7076;51.280;12.584;2023-11-21T03:27:55;3.45;;;1.27;;
14001;SDS011;7076;51.280;12.584;2023-11-21T03:32:57;3.47;;;1.38;;
14001;SDS011;7076;51.280;12.584;2023-11-21T03:38:00;2.95;;;1.63;;
14001;SDS011;7076;51.280;12.584;2023-11-21T03:43:05;1.77;;;1.60;;
14001;SDS011;7076;51.280;12.584;2023-11-21T03:48:07;3.15;;;2.03;;
14001;SDS011;7076;51.280;12.584;2023-11-21T03:53:12;3.83;;;1.48;;
14001;SDS011;7076;51.280;12.584;2023-11-21T03:58:16;2.30;;;1.70;;
14001;SDS011;7076;51.280;12.584;2023-11-21T04:03:19;2.50;;;1.85;;
14001;SDS011;7076;51.280;12.584;2023-11-21T04:08:22;2.05;;;1.55;;
14001;SDS011;7076;51.280;12.584;2023-11-21T04:13:26;2.40;;;1.58;;
14001;SDS011;7076;51.280;12.584;2023-11-21T04:18:29;4.50;;;1.85;;
14001;SDS011;7076;51.280;12.584;2023-11-21T04:23:31;2.67;;;2.03;;
14001;SDS011;7076;51.280;12.584;2023-11-21T04:28:35;3.08;;;1.90;;
14001;SDS011;7076;51.280;12.584;2023-11-21T04:33:38;5.75;;;2.25;;
14001;SDS011;7076;51.280;12.584;2023-11-21T04:38:41;2.90;;;1.55;;
14001;SDS011;7076;51.280;12.584;2023-11-21T04:43:45;4.93;;;2.30;;
14001;SDS011;7076;51.280;12.584;2023-11-21T04:48:48;2.97;;;1.90;;
14001;SDS011;7076;51.280;12.584;2023-11-21T04:53:50;5.28;;;1.98;;
14001;SDS011;7076;51.280;12.584;2023-11-21T04:58:54;6.72;;;2.63;;
14001;SDS011;7076;51.280;12.584;2023-11-21T05:03:57;2.80;;;2.10;;
14001;SDS011;7076;51.280;12.584;2023-11-21T05:09:00;5.63;;;2.10;;
14001;SDS011;7076;51.280;12.584;2023-11-21T05:14:04;3.10;;;1.90;;
14001;SDS011;7076;51.280;12.584;2023-11-21T05:19:08;4.65;;;3.78;;
14001;SDS011;7076;51.280;12.584;2023-11-21T05:24:11;3.17;;;2.10;;
14001;SDS011;7076;51.280;12.584;2023-11-21T05:29:15;6.32;;;2.03;;
14001;SDS011;7076;51.280;12.584;2023-11-21T05:34:17;3.20;;;2.42;;
14001;SDS011;7076;51.280;12.584;2023-11-21T05:39:22;4.68;;;2.00;;
14001;SDS011;7076;51.280;12.584;2023-11-21T05:44:27;5.45;;;2.47;;
14001;SDS011;7076;51.280;12.584;2023-11-21T05:49:29;8.88;;;2.50;;
14001;SDS011;7076;51.280;12.584;2023-11-21T05:54:32;4.45;;;2.30;;
14001;SDS011;7076;51.280;12.584;2023-11-21T05:59:36;3.78;;;2.78;;
14001;SDS011;7076;51.280;12.584;2023-11-21T06:04:39;4.82;;;2.80;;
14001;SDS011;7076;51.280;12.584;2023-11-21T06:09:41;4.43;;;2.65;;
14001;SDS011;7076;51.280;12.584;2023-11-21T06:14:47;7.32;;;3.35;;
14001;SDS011;7076;51.280;12.584;2023-11-21T06:19:50;5.25;;;2.67;;
14001;SDS011;7076;51.280;12.584;2023-11-21T06:24:54;5.30;;;2.85;;
14001;SDS011;7076;51.280;12.584;2023-11-21T06:29:58;3.90;;;2.90;;
14001;SDS011;7076;51.280;12.584;2023-11-21T06:35:00;6.25;;;3.25;;
14001;SDS011;7076;51.280;12.584;2023-11-21T06:40:04;5.40;;;2.67;;
14001;SDS011;7076;51.280;12.584;2023-11-21T06:45:09;5.13;;;3.25;;
14001;SDS011;7076;51.280;12.584;2023-11-21T06:50:12;4.95;;;3.47;;
14001;SDS011;7076;51.280;12.584;2023-11-21T06:55:15;5.13;;;3.25;;
14001;SDS011;7076;51.280;12.584;2023-11-21T07:00:19;7.53;;;3.75;;
14001;SDS011;7076;51.280;12.584;2023-11-21T07:05:22;7.45;;;3.63;;
14001;SDS011;7076;51.280;12.584;2023-11-21T07:10:25;5.65;;;4.00;;
14001;SDS011;7076;51.280;12.584;2023-11-21T07:15:29;5.75;;;4.30;;
14001;SDS011;7076;51.280;12.584;2023-11-21T07:20:31;5.53;;;4.00;;
14001;SDS011;7076;51.280;12.584;2023-11-21T07:25:34;6.15;;;3.90;;
14001;SDS011;7076;51.280;12.584;2023-11-21T07:30:39;5.47;;;3.55;;
14001;SDS011;7076;51.280;12.584;2023-11-21T07:35:41;7.50;;;4.65;;
14001;SDS011;7076;51.280;12.584;2023-11-21T07:40:44;6.60;;;3.80;;
14001;SDS011;7076;51.280;12.584;2023-11-21T07:45:48;3.95;;;3.53;;
14001;SDS011;7076;51.280;12.584;2023-11-21T07:50:51;3.97;;;3.15;;
14001;SDS011;7076;51.280;12.584;2023-11-21T07:55:53;5.63;;;3.30;;
14001;SDS011;7076;51.280;12.584;2023-11-21T08:00:57;8.23;;;4.80;;
14001;SDS011;7076;51.280;12.584;2023-11-21T08:06:00;8.60;;;5.28;;
14001;SDS011;7076;51.280;12.584;2023-11-21T08:11:04;8.82;;;5.93;;
14001;SDS011;7076;51.280;12.584;2023-11-21T08:16:10;9.10;;;6.50;;
14001;SDS011;7076;51.280;12.584;2023-11-21T08:21:13;10.50;;;6.15;;
14001;SDS011;7076;51.280;12.584;2023-11-21T08:26:16;9.35;;;6.28;;
14001;SDS011;7076;51.280;12.584;2023-11-21T08:31:24;5.72;;;5.07;;
14001;SDS011;7076;51.280;12.584;2023-11-21T08:36:27;5.85;;;4.63;;
14001;SDS011;7076;51.280;12.584;2023-11-21T08:41:30;5.28;;;4.07;;
14001;SDS011;7076;51.280;12.584;2023-11-21T08:46:34;7.75;;;4.50;;
14001;SDS011;7076;51.280;12.584;2023-11-21T08:51:38;4.78;;;3.72;;
14001;SDS011;7076;51.280;12.584;2023-11-21T08:56:40;5.03;;;3.70;;
14001;SDS011;7076;51.280;12.584;2023-11-21T09:01:44;5.25;;;3.70;;
14001;SDS011;7076;51.280;12.584;2023-11-21T09:06:48;6.72;;;4.25;;
14001;SDS011;7076;51.280;12.584;2023-11-21T09:11:50;6.07;;;3.70;;
14001;SDS011;7076;51.280;12.584;2023-11-21T09:16:54;6.05;;;3.88;;
14001;SDS011;7076;51.280;12.584;2023-11-21T09:21:58;6.68;;;4.55;;
14001;SDS011;7076;51.280;12.584;2023-11-21T09:27:01;6.20;;;4.40;;
14001;SDS011;7076;51.280;12.584;2023-11-21T09:32:05;7.57;;;4.85;;
14001;SDS011;7076;51.280;12.584;2023-11-21T09:37:10;9.25;;;4.82;;
14001;SDS011;7076;51.280;12.584;2023-11-21T09:42:17;7.28;;;4.97;;
14001;SDS011;7076;51.280;12.584;2023-11-21T09:47:21;7.10;;;5.05;;
14001;SDS011;7076;51.280;12.584;2023-11-21T09:52:25;9.40;;;4.95;;
14001;SDS011;7076;51.280;12.584;2023-11-21T09:57:28;8.80;;;5.35;;
14001;SDS011;7076;51.280;12.584;2023-11-21T10:02:32;7.28;;;5.22;;
14001;SDS011;7076;51.280;12.584;2023-11-21T10:07:38;9.48;;;5.38;;
14001;SDS011;7076;51.280;12.584;2023-11-21T10:12:41;6.95;;;4.63;;
14001;SDS011;7076;51.280;12.584;2023-11-21T10:17:46;6.65;;;4.38;;
14001;SDS011;7076;51.280;12.584;2023-11-21T10:22:51;6.55;;;4.43;;
14001;SDS011;7076;51.280;12.584;2023-11-21T10:27:57;7.15;;;3.88;;
14001;SDS011;7076;51.280;12.584;2023-11-21T10:33:04;4.07;;;3.00;;
14001;SDS011;7076;51.280;12.584;2023-11-21T10:38:07;4.70;;;3.25;;
14001;SDS011;7076;51.280;12.584;2023-11-21T10:43:11;4.35;;;3.30;;
14001;SDS011;7076;51.280;12.584;2023-11-21T10:48:16;5.20;;;3.13;;
14001;SDS011;7076;51.280;12.584;2023-11-21T10:53:19;6.90;;;3.35;;
14001;SDS011;7076;51.280;12.584;2023-11-21T10:58:22;7.35;;;4.25;;
14001;SDS011;7076;51.280;12.584;2023-11-21T11:03:26;7.18;;;5.20;;
14001;SDS011;7076;51.280;12.584;2023-11-21T11:08:29;11.32;;;6.13;;
14001;SDS011;7076;51.280;12.584;2023-11-21T11:13:32;10.50;;;6.95;;
14001;SDS011;7076;51.280;12.584;2023-11-21T11:18:37;11.45;;;6.70;;
14001;SDS011;7076;51.280;12.584;2023-11-21T11:23:44;8.88;;;6.38;;
14001;SDS011;7076;51.280;12.584;2023-11-21T11:28:51;10.45;;;6.40;;
14001;SDS011;7076;51.280;12.584;2023-11-21T11:33:58;9.82;;;6.72;;
14001;SDS011;7076;51.280;12.584;2023-11-21T11:39:02;9.85;;;6.75;;
14001;SDS011;7076;51.280;12.584;2023-11-21T11:44:09;10.07;;;6.45;;
14001;SDS011;7076;51.280;12.584;2023-11-21T11:49:30;8.32;;;5.55;;
14001;SDS011;7076;51.280;12.584;2023-11-21T11:54:34;8.68;;;6.05;;
14001;SDS011;7076;51.280;12.584;2023-11-21T12:04:56;8.18;;;4.70;;
14001;SDS011;7076;51.280;12.584;2023-11-21T12:09:59;6.93;;;4.90;;
14001;SDS011;7076;51.280;12.584;2023-11-21T12:15:02;10.68;;;5.13;;
14001;SDS011;7076;51.280;12.584;2023-11-21T12:20:08;12.15;;;4.90;;
14001;SDS011;7076;51.280;12.584;2023-11-21T12:25:16;13.48;;;5.30;;
14001;SDS011;7076;51.280;12.584;2023-11-21T12:30:20;8.88;;;5.50;;
14001;SDS011;7076;51.280;12.584;2023-11-21T12:35:25;6.50;;;4.00;;
14001;SDS011;7076;51.280;12.584;2023-11-21T12:40:28;5.93;;;3.65;;
14001;SDS011;7076;51.280;12.584;2023-11-21T12:45:31;7.03;;;4.00;;
14001;SDS011;7076;51.280;12.584;2023-11-21T12:50:35;5.50;;;4.03;;
14001;SDS011;7076;51.280;12.584;2023-11-21T12:55:39;6.90;;;4.05;;
14001;SDS011;7076;51.280;12.584;2023-11-21T13:00:44;6.13;;;3.85;;
14001;SDS011;7076;51.280;12.584;2023-11-21T13:05:48;7.07;;;4.50;;
14001;SDS011;7076;51.280;12.584;2023-11-21T13:10:54;7.35;;;4.05;;
14001;SDS011;7076;51.280;12.584;2023-11-21T13:15:58;6.00;;;3.78;;
14001;SDS011;7076;51.280;12.584;2023-11-21T13:21:05;6.10;;;4.20;;
14001;SDS011;7076;51.280;12.584;2023-11-21T13:26:12;7.72;;;4.38;;
14001;SDS011;7076;51.280;12.584;2023-11-21T13:31:16;5.40;;;3.42;;
14001;SDS011;7076;51.280;12.584;2023-11-21T13:36:29;6.28;;;3.50;;
14001;SDS011;7076;51.280;12.584;2023-11-21T13:41:34;6.88;;;4.13;;
14001;SDS011;7076;51.280;12.584;2023-11-21T13:46:39;5.43;;;3.40;;
14001;SDS011;7076;51.280;12.584;2023-11-21T13:51:43;4.82;;;3.13;;
14001;SDS011;7076;51.280;12.584;2023-11-21T13:56:49;4.72;;;3.95;;
14001;SDS011;7076;51.280;12.584;2023-11-21T14:01:52;6.87;;;3.50;;
14001;SDS011;7076;51.280;12.584;2023-11-21T14:07:02;5.95;;;4.10;;
14001;SDS011;7076;51.280;12.584;2023-11-21T14:12:22;5.78;;;3.72;;
14001;SDS011;7076;51.280;12.584;2023-11-21T14:17:24;5.20;;;4.18;;
14001;SDS011;7076;51.280;12.584;2023-11-21T14:22:30;3.90;;;3.00;;
14001;SDS011;7076;51.280;12.584;2023-11-21T14:27:32;3.13;;;2.50;;
14001;SDS011;7076;51.280;12.584;2023-11-21T14:32:37;3.90;;;2.80;;
14001;SDS011;7076;51.280;12.584;2023-11-21T14:37:42;3.70;;;3.00;;
14001;SDS011;7076;51.280;12.584;2023-11-21T14:42:45;5.27;;;3.47;;
14001;SDS011;7076;51.280;12.584;2023-11-21T14:47:49;3.50;;;2.75;;
14001;SDS011;7076;51.280;12.584;2023-11-21T14:53:00;2.92;;;2.35;;
14001;SDS011;7076;51.280;12.584;2023-11-21T14:58:07;2.67;;;2.22;;
14001;SDS011;7076;51.280;12.584;2023-11-21T15:03:14;3.65;;;3.00;;
14001;SDS011;7076;51.280;12.584;2023-11-21T15:08:37;3.80;;;2.40;;
14001;SDS011;7076;51.280;12.584;2023-11-21T15:13:44;3.60;;;2.30;;
14001;SDS011;7076;51.280;12.584;2023-11-21T15:18:49;2.93;;;2.33;;
14001;SDS011;7076;51.280;12.584;2023-11-21T15:23:53;3.47;;;2.27;;
14001;SDS011;7076;51.280;12.584;2023-11-21T15:28:56;2.50;;;1.83;;
14001;SDS011;7076;51.280;12.584;2023-11-21T15:33:59;2.23;;;2.00;;
14001;SDS011;7076;51.280;12.584;2023-11-21T15:39:03;3.47;;;2.63;;
14001;SDS011;7076;51.280;12.584;2023-11-21T15:44:05;4.97;;;2.67;;
14001;SDS011;7076;51.280;12.584;2023-11-21T15:49:11;2.63;;;2.13;;
14001;SDS011;7076;51.280;12.584;2023-11-21T15:54:16;3.13;;;2.20;;
14001;SDS011;7076;51.280;12.584;2023-11-21T15:59:18;4.17;;;2.30;;
14001;SDS011;7076;51.280;12.584;2023-11-21T16:04:21;2.20;;;1.80;;
14001;SDS011;7076;51.280;12.584;2023-11-21T16:09:26;2.37;;;2.17;;
14001;SDS011;7076;51.280;12.584;2023-11-21T16:14:33;3.10;;;2.20;;
14001;SDS011;7076;51.280;12.584;2023-11-21T16:19:40;4.33;;;3.17;;
14001;SDS011;7076;51.280;12.584;2023-11-21T16:24:45;5.23;;;2.73;;
14001;SDS011;7076;51.280;12.584;2023-11-21T16:29:47;2.53;;;2.17;;
14001;SDS011;7076;51.280;12.584;2023-11-21T16:34:50;3.30;;;2.50;;
14001;SDS011;7076;51.280;12.584;2023-11-21T16:39:54;3.77;;;2.50;;
14001;SDS011;7076;51.280;12.584;2023-11-21T16:44:57;3.03;;;2.50;;
14001;SDS011;7076;51.280;12.584;2023-11-21T16:49:59;2.00;;;1.80;;
14001;SDS011;7076;51.280;12.584;2023-11-21T16:55:04;3.03;;;1.43;;
14001;SDS011;7076;51.280;12.584;2023-11-21T17:00:07;1.87;;;1.67;;
14001;SDS011;7076;51.280;12.584;2023-11-21T17:05:13;2.20;;;1.50;;
14001;SDS011;7076;51.280;12.584;2023-11-21T17:10:18;4.20;;;3.43;;
14001;SDS011;7076;51.280;12.584;2023-11-21T17:15:23;3.47;;;2.90;;
14001;SDS011;7076;51.280;12.584;2023-11-21T17:20:25;5.17;;;2.80;;
14001;SDS011;7076;51.280;12.584;2023-11-21T17:25:29;3.97;;;2.93;;
14001;SDS011;7076;51.280;12.584;2023-11-21T17:30:32;2.23;;;2.03;;
14001;SDS011;7076;51.280;12.584;2023-11-21T17:35:35;2.80;;;2.37;;
14001;SDS011;7076;51.280;12.584;2023-11-21T17:40:40;5.07;;;2.10;;
14001;SDS011;7076;51.280;12.584;2023-11-21T17:45:43;2.43;;;2.23;;
14001;SDS011;7076;51.280;12.584;2023-11-21T17:50:46;3.17;;;2.27;;
14001;SDS011;7076;51.280;12.584;2023-11-21T17:55:50;3.37;;;2.17;;
14001;SDS011;7076;51.280;12.584;2023-11-21T18:00:53;2.43;;;1.87;;
14001;SDS011;7076;51.280;12.584;2023-11-21T18:05:56;2.50;;;2.27;;
14001;SDS011;7076;51.280;12.584;2023-11-21T18:11:00;2.80;;;2.43;;
14001;SDS011;7076;51.280;12.584;2023-11-21T18:16:06;3.67;;;2.40;;
14001;SDS011;7076;51.280;12.584;2023-11-21T18:21:09;2.63;;;2.37;;
14001;SDS011;7076;51.280;12.584;2023-11-21T18:26:17;3.03;;;2.60;;
14001;SDS011;7076;51.280;12.584;2023-11-21T18:31:20;3.17;;;2.50;;
14001;SDS011;7076;51.280;12.584;2023-11-21T18:36:22;2.80;;;2.50;;
14001;SDS011;7076;51.280;12.584;2023-11-21T18:41:27;2.87;;;2.57;;
14001;SDS011;7076;51.280;12.584;2023-11-21T18:46:35;4.43;;;3.40;;
14001;SDS011;7076;51.280;12.584;2023-11-21T18:51:38;3.63;;;2.70;;
14001;SDS011;7076;51.280;12.584;2023-11-21T18:56:42;3.37;;;2.63;;
14001;SDS011;7076;51.280;12.584;2023-11-21T19:01:44;2.93;;;2.60;;
14001;SDS011;7076;51.280;12.584;2023-11-21T19:06:47;3.08;;;2.50;;
14001;SDS011;7076;51.280;12.584;2023-11-21T19:11:51;4.22;;;3.10;;
14001;SDS011;7076;51.280;12.584;2023-11-21T19:16:55;5.83;;;3.33;;
14001;SDS011;7076;51.280;12.584;2023-11-21T19:21:58;3.90;;;2.90;;
14001;SDS011;7076;51.280;12.584;2023-11-21T19:27:02;2.40;;;2.00;;
14001;SDS011;7076;51.280;12.584;2023-11-21T19:32:06;2.43;;;2.10;;
14001;SDS011;7076;51.280;12.584;2023-11-21T19:37:10;3.63;;;1.90;;
14001;SDS011;7076;51.280;12.584;2023-11-21T19:42:14;3.50;;;2.53;;
14001;SDS011;7076;51.280;12.584;2023-11-21T19:47:16;3.33;;;2.80;;
14001;SDS011;7076;51.280;12.584;2023-11-21T19:52:19;2.97;;;2.67;;
14001;SDS011;7076;51.280;12.584;2023-11-21T19:57:24;3.90;;;3.10;;
14001;SDS011;7076;51.280;12.584;2023-11-21T20:02:27;3.87;;;3.10;;
14001;SDS011;7076;51.280;12.584;2023-11-21T20:07:30;6.70;;;4.90;;
14001;SDS011;7076;51.280;12.584;2023-11-21T20:12:35;8.47;;;5.47;;
14001;SDS011;7076;51.280;12.584;2023-11-21T20:17:37;6.03;;;4.87;;
14001;SDS011;7076;51.280;12.584;2023-11-21T20:22:44;9.00;;;5.90;;
14001;SDS011;7076;51.280;12.584;2023-11-21T20:27:49;8.40;;;6.03;;
14001;SDS011;7076;51.280;12.584;2023-11-21T20:32:52;7.03;;;5.70;;
14001;SDS011;7076;51.280;12.584;2023-11-21T20:37:55;8.43;;;6.00;;
14001;SDS011;7076;51.280;12.584;2023-11-21T20:42:59;6.70;;;5.53;;
14001;SDS011;7076;51.280;12.584;2023-11-21T20:48:04;8.40;;;5.30;;
14001;SDS011;7076;51.280;12.584;2023-11-21T20:53:07;7.30;;;4.73;;
14001;SDS011;7076;51.280;12.584;2023-11-21T20:58:13;7.73;;;5.00;;
14001;SDS011;7076;51.280;12.584;2023-11-21T21:03:16;7.77;;;5.47;;
14001;SDS011;7076;51.280;12.584;2023-11-21T21:08:19;7.20;;;5.33;;
14001;SDS011;7076;51.280;12.584;2023-11-21T21:13:24;7.03;;;5.20;;
14001;SDS011;7076;51.280;12.584;2023-11-21T21:18:26;6.10;;;4.70;;
14001;SDS011;7076;51.280;12.584;2023-11-21T21:23:29;7.17;;;5.10;;
14001;SDS011;7076;51.280;12.584;2023-11-21T21:28:35;6.60;;;5.37;;
14001;SDS011;7076;51.280;12.584;2023-11-21T21:33:37;6.00;;;5.00;;
14001;SDS011;7076;51.280;12.584;2023-11-21T21:38:40;6.53;;;4.87;;
14001;SDS011;7076;51.280;12.584;2023-11-21T21:43:45;7.37;;;5.30;;
14001;SDS011;7076;51.280;12.584;2023-11-21T21:48:48;6.80;;;5.57;;
14001;SDS011;7076;51.280;12.584;2023-11-21T21:53:50;7.70;;;5.43;;
14001;SDS011;7076;51.280;12.584;2023-11-21T21:58:54;6.57;;;5.10;;
14001;SDS011;7076;51.280;12.584;2023-11-21T22:03:58;7.33;;;5.37;;
14001;SDS011;7076;51.280;12.584;2023-11-21T22:09:01;7.97;;;6.20;;
14001;SDS011;7076;51.280;12.584;2023-11-21T22:14:06;7.93;;;5.77;;
14001;SDS011;7076;51.280;12.584;2023-11-21T22:19:08;10.70;;;6.70;;
14001;SDS011;7076;51.280;12.584;2023-11-21T22:24:11;11.70;;;6.73;;
14001;SDS011;7076;51.280;12.584;2023-11-21T22:29:15;9.90;;;5.80;;
14001;SDS011;7076;51.280;12.584;2023-11-21T22:34:18;8.90;;;5.73;;
14001;SDS011;7076;51.280;12.584;2023-11-21T22:39:22;8.63;;;5.87;;
14001;SDS011;7076;51.280;12.584;2023-11-21T22:44:26;9.00;;;6.00;;
14001;SDS011;7076;51.280;12.584;2023-11-21T22:49:28;11.50;;;5.90;;
14001;SDS011;7076;51.280;12.584;2023-11-21T22:54:31;8.80;;;5.97;;
14001;SDS011;7076;51.280;12.584;2023-11-21T22:59:35;8.87;;;5.87;;
14001;SDS011;7076;51.280;12.584;2023-11-21T23:04:38;7.80;;;5.50;;
14001;SDS011;7076;51.280;12.584;2023-11-21T23:09:41;10.27;;;6.30;;
14001;SDS011;7076;51.280;12.584;2023-11-21T23:14:45;8.67;;;5.90;;
14001;SDS011;7076;51.280;12.584;2023-11-21T23:19:47;9.10;;;5.30;;
14001;SDS011;7076;51.280;12.584;2023-11-21T23:24:56;7.30;;;5.13;;
14001;SDS011;7076;51.280;12.584;2023-11-21T23:30:00;9.00;;;5.67;;
14001;SDS011;7076;51.280;12.584;2023-11-21T23:35:03;11.43;;;6.20;;
14001;SDS011;7076;51.280;12.584;2023-11-21T23:40:06;8.27;;;5.80;;
14001;SDS011;7076;51.280;12.584;2023-11-21T23:45:12;8.30;;;4.83;;
14001;SDS011;7076;51.280;12.584;2023-11-21T23:50:15;17.73;;;5.87;;
14001;SDS011;7076;51.280;12.584;2023-11-21T23:55:18;6.37;;;4.37;;
